Time;durP1;ratioP1;P1;durP2;ratioP2;P2;SDS_P1;SDS_P2;PMS_P1;PMS_P2;Temp;Humidity;BMP_temperature;BMP_pressure;BME280_temperature;BME280_humidity;BME280_pressure;Samples;Min_cycle;Max_cycle;Signal;HPM_P1;HPM_P2
2022/05/28 00:00:11;;;;;;;15.52;3.58;;;;;;;10.82;71.95;102034.03;5033924;28;20065;-76
2022/05/28 00:02:37;;;;;;;15.98;4.15;;;;;;;10.80;72.28;102030.69;5030052;28;20045;-75
2022/05/28 00:05:03;;;;;;;15.18;3.80;;;;;;;10.80;72.36;102026.09;5033502;28;20108;-76
2022/05/28 00:07:28;;;;;;;12.40;3.30;;;;;;;10.76;72.62;102022.13;5033521;28;20037;-76
2022/05/28 00:09:54;;;;;;;13.80;3.45;;;;;;;10.73;72.70;102025.22;5033568;28;20052;-76
2022/05/28 00:12:24;;;;;;;13.80;3.40;;;;;;;10.72;72.92;102018.16;5033280;28;20069;-75
2022/05/28 00:14:49;;;;;;;16.40;3.45;;;;;;;10.63;72.78;102012.03;5031755;28;20048;-76
2022/05/28 00:17:14;;;;;;;14.98;3.47;;;;;;;10.65;73.30;102019.97;5015628;28;20137;-75
2022/05/28 00:19:39;;;;;;;14.07;3.50;;;;;;;10.63;73.45;102020.16;5031974;28;20095;-76
2022/05/28 00:22:05;;;;;;;14.27;3.35;;;;;;;10.60;74.05;102014.31;5033508;28;20489;-74
2022/05/28 00:24:30;;;;;;;14.70;3.58;;;;;;;10.63;73.38;102012.03;5033434;28;20087;-75
2022/05/28 00:26:55;;;;;;;16.27;3.65;;;;;;;10.61;73.23;102011.41;5031922;28;20037;-76
2022/05/28 00:29:21;;;;;;;9.65;3.10;;;;;;;10.63;74.17;102008.50;5033290;28;20025;-76
2022/05/28 00:31:47;;;;;;;11.85;3.33;;;;;;;10.56;74.61;102013.84;5031841;28;20037;-75
2022/05/28 00:34:12;;;;;;;15.02;4.53;;;;;;;10.53;74.54;102006.13;5033249;28;20120;-76
2022/05/28 00:36:37;;;;;;;18.35;3.97;;;;;;;10.52;75.65;102000.91;5032792;28;20029;-75
2022/05/28 00:39:03;;;;;;;17.38;4.18;;;;;;;10.52;75.45;101998.19;5032936;28;20029;-75
2022/05/28 00:41:28;;;;;;;15.18;4.80;;;;;;;10.56;75.96;101996.78;5033136;28;20022;-75
2022/05/28 00:43:53;;;;;;;13.45;4.03;;;;;;;10.63;75.47;102003.09;5032866;28;20530;-76
2022/05/28 00:46:23;;;;;;;10.48;3.55;;;;;;;10.64;76.71;102004.75;5033094;28;20386;-75
2022/05/28 00:48:55;;;;;;;14.65;3.63;;;;;;;10.70;74.96;102003.97;5032702;28;20029;-76
2022/05/28 00:51:24;;;;;;;15.05;3.95;;;;;;;10.66;75.63;102007.25;5033257;28;20055;-76
2022/05/28 00:53:50;;;;;;;14.77;4.00;;;;;;;10.69;76.15;101999.59;5032151;28;20407;-76
2022/05/28 00:56:16;;;;;;;15.75;4.03;;;;;;;10.66;75.75;101997.28;5032885;28;20087;-75
2022/05/28 00:58:41;;;;;;;14.20;4.50;;;;;;;10.72;75.99;102003.75;5032370;28;20532;-75
2022/05/28 01:01:09;;;;;;;17.38;4.28;;;;;;;10.68;75.74;101995.19;5029329;28;20038;-76
2022/05/28 01:03:47;;;;;;;18.60;4.40;;;;;;;10.69;75.96;101994.19;5032790;28;20037;-76
2022/05/28 01:06:36;;;;;;;15.40;4.00;;;;;;;10.74;75.90;102002.53;5032792;28;20108;-76
2022/05/28 01:09:08;;;;;;;16.27;4.00;;;;;;;10.69;76.26;101993.31;5032257;28;20385;-75
2022/05/28 01:11:39;;;;;;;14.95;4.35;;;;;;;10.71;75.94;101993.97;5032781;28;20492;-75
2022/05/28 01:14:12;;;;;;;20.73;4.85;;;;;;;10.61;76.27;101987.06;5032243;28;20033;-76
2022/05/28 01:16:43;;;;;;;13.57;4.20;;;;;;;10.63;76.60;101993.09;5032283;28;20406;-75
2022/05/28 01:19:42;;;;;;;16.50;4.20;;;;;;;10.71;75.16;101989.41;5032531;28;20033;-75
2022/05/28 01:22:35;;;;;;;16.55;4.28;;;;;;;10.75;75.14;101979.00;5032506;28;20029;-75
2022/05/28 01:25:05;;;;;;;17.65;4.30;;;;;;;10.70;75.64;101986.88;5014461;28;20803;-75
2022/05/28 01:27:34;;;;;;;19.40;4.57;;;;;;;10.69;75.81;101983.34;5032233;28;20075;-75
2022/05/28 01:30:04;;;;;;;15.00;4.90;;;;;;;10.69;75.66;101977.94;5014333;28;20028;-75
2022/05/28 01:32:32;;;;;;;15.45;4.28;;;;;;;10.64;76.20;101981.25;5032352;28;20043;-76
2022/05/28 01:34:59;;;;;;;22.67;4.57;;;;;;;10.61;75.81;101978.06;5032225;28;20033;-76
2022/05/28 01:37:25;;;;;;;16.02;4.30;;;;;;;10.56;76.11;101970.53;5032291;28;20116;-75
2022/05/28 01:39:52;;;;;;;13.00;4.60;;;;;;;10.55;77.01;101973.44;5032046;28;20113;-75
2022/05/28 01:42:18;;;;;;;21.65;4.70;;;;;;;10.54;76.21;101961.78;5032422;28;20033;-75
2022/05/28 01:44:45;;;;;;;13.68;4.43;;;;;;;10.49;77.00;101974.25;5032225;28;20470;-75
2022/05/28 01:47:13;;;;;;;15.98;4.22;;;;;;;10.46;77.13;101976.31;5032250;28;20527;-76
2022/05/28 01:49:39;;;;;;;14.10;3.92;;;;;;;10.43;77.37;101973.16;5032188;28;20151;-75
2022/05/28 01:52:06;;;;;;;15.73;4.32;;;;;;;10.42;77.95;101972.31;5032061;28;20036;-76
2022/05/28 01:54:43;;;;;;;16.73;4.75;;;;;;;10.43;77.85;101971.31;5014512;28;20029;-75
2022/05/28 01:57:08;;;;;;;15.70;3.85;;;;;;;10.44;78.31;101975.66;5031911;28;20033;-75
2022/05/28 01:59:35;;;;;;;17.15;3.97;;;;;;;10.48;78.48;101968.00;5032180;28;20025;-75
2022/05/28 02:02:05;;;;;;;14.57;4.20;;;;;;;10.50;78.62;101970.50;5028470;28;20045;-76
2022/05/28 02:04:31;;;;;;;12.63;3.75;;;;;;;10.51;78.14;101969.47;5032057;28;20036;-75
2022/05/28 02:06:57;;;;;;;13.73;3.95;;;;;;;10.46;79.29;101970.91;5034820;28;20033;-75
2022/05/28 02:09:27;;;;;;;15.82;4.25;;;;;;;10.42;80.13;101979.63;5035782;28;20080;-76
2022/05/28 02:12:01;;;;;;;14.65;4.18;;;;;;;10.51;79.03;101977.56;5035637;28;20073;-76
2022/05/28 02:14:49;;;;;;;13.25;4.00;;;;;;;10.55;78.59;101984.28;5035867;28;20029;-75
2022/05/28 02:17:21;;;;;;;19.25;4.20;;;;;;;10.45;79.55;101976.50;5036004;28;20045;-75
2022/05/28 02:20:13;;;;;;;17.77;4.28;;;;;;;10.55;79.43;101981.56;5035610;28;20042;-75
2022/05/28 02:22:52;;;;;;;15.13;4.22;;;;;;;10.53;79.60;101972.81;5035765;28;20033;-75
2022/05/28 02:25:23;;;;;;;13.23;3.60;;;;;;;10.50;79.76;101974.03;5035996;28;20045;-75
2022/05/28 02:27:51;;;;;;;14.60;4.38;;;;;;;10.45;79.47;101969.22;5035117;28;20431;-75
2022/05/28 02:30:16;;;;;;;16.92;4.30;;;;;;;10.38;80.23;101965.63;5035132;28;20429;-76
2022/05/28 02:32:42;;;;;;;21.67;5.10;;;;;;;10.40;80.17;101960.88;5035529;28;20029;-75
2022/05/28 02:35:09;;;;;;;12.48;3.97;;;;;;;10.44;80.02;101972.13;5035528;28;20359;-75
2022/05/28 02:37:34;;;;;;;12.85;4.30;;;;;;;10.37;80.07;101968.53;5034055;28;20402;-76
2022/05/28 02:40:00;;;;;;;16.25;4.78;;;;;;;10.36;80.48;101964.16;5035163;28;20056;-76
2022/05/28 02:42:26;;;;;;;15.10;3.90;;;;;;;10.34;80.76;101964.38;5035383;28;20037;-75
2022/05/28 02:44:51;;;;;;;14.80;4.20;;;;;;;10.34;80.41;101956.25;5035147;28;20037;-75
2022/05/28 02:47:17;;;;;;;15.15;4.10;;;;;;;10.35;80.83;101957.06;5035025;28;20029;-75
2022/05/28 02:49:42;;;;;;;17.48;4.25;;;;;;;10.33;81.00;101954.56;5035234;28;20079;-75
2022/05/28 02:52:08;;;;;;;10.95;3.85;;;;;;;10.31;80.91;101950.34;5034925;28;20029;-75
2022/05/28 02:54:34;;;;;;;13.73;4.00;;;;;;;10.30;81.12;101949.53;5035225;28;20095;-75
2022/05/28 02:57:00;;;;;;;17.42;4.40;;;;;;;10.31;81.27;101955.75;5034846;28;20029;-75
2022/05/28 02:59:25;;;;;;;13.57;3.88;;;;;;;10.28;81.51;101951.56;5035101;28;20037;-76
2022/05/28 03:01:52;;;;;;;18.83;4.50;;;;;;;10.28;82.03;101951.56;5031187;28;20096;-76
2022/05/28 03:04:18;;;;;;;18.35;4.20;;;;;;;10.25;82.36;101947.41;5035061;28;20037;-75
2022/05/28 03:06:43;;;;;;;18.45;4.47;;;;;;;10.23;83.04;101948.63;5034916;28;20064;-75
2022/05/28 03:09:09;;;;;;;11.98;3.63;;;;;;;10.21;82.97;101946.13;5034561;28;20399;-76
2022/05/28 03:11:36;;;;;;;20.38;4.35;;;;;;;10.26;83.23;101942.81;5034959;28;20049;-76
2022/05/28 03:14:02;;;;;;;19.23;3.95;;;;;;;10.26;83.16;101949.06;5034630;28;20108;-75
2022/05/28 03:16:28;;;;;;;12.15;3.50;;;;;;;10.22;83.92;101938.81;5034700;28;20037;-75
2022/05/28 03:18:53;;;;;;;11.48;3.55;;;;;;;10.24;83.91;101942.19;5034872;28;20083;-76
2022/05/28 03:21:18;;;;;;;16.90;3.50;;;;;;;10.29;83.75;101950.53;5034605;28;20363;-75
2022/05/28 03:23:47;;;;;;;10.38;3.50;;;;;;;10.26;84.53;101938.22;5034716;28;20022;-75
2022/05/28 03:26:15;;;;;;;15.90;3.83;;;;;;;10.31;84.78;101947.63;5034349;28;20029;-75
2022/05/28 03:28:41;;;;;;;17.20;4.03;;;;;;;10.34;84.32;101950.84;5034402;28;20041;-75
2022/05/28 03:31:06;;;;;;;15.57;4.00;;;;;;;10.33;85.17;101951.00;5034275;28;20031;-76
2022/05/28 03:33:31;;;;;;;17.52;3.80;;;;;;;10.38;84.64;101945.84;5034481;28;20021;-75
2022/05/28 03:35:57;;;;;;;14.32;3.90;;;;;;;10.38;84.75;101954.81;5033957;28;20029;-76
2022/05/28 03:38:22;;;;;;;14.38;4.15;;;;;;;10.39;84.98;101953.78;5034306;28;20425;-76
2022/05/28 03:40:47;;;;;;;16.75;4.18;;;;;;;10.33;85.01;101942.88;5034398;28;20060;-75
2022/05/28 03:43:12;;;;;;;17.33;3.60;;;;;;;10.31;85.57;101950.34;5034046;28;20029;-75
2022/05/28 03:45:38;;;;;;;17.65;4.00;;;;;;;10.28;85.80;101946.16;5034220;28;20596;-75
2022/05/28 03:48:06;;;;;;;10.52;3.53;;;;;;;10.29;85.73;101950.53;5034004;28;20033;-75
2022/05/28 03:50:31;;;;;;;18.40;3.58;;;;;;;10.27;85.47;101960.72;5033857;28;20029;-75
2022/05/28 03:52:57;;;;;;;17.33;3.58;;;;;;;10.27;85.91;101958.84;5033880;28;20045;-75
2022/05/28 03:55:22;;;;;;;19.40;4.18;;;;;;;10.25;86.15;101952.81;5034070;28;20524;-75
2022/05/28 03:57:47;;;;;;;17.40;3.58;;;;;;;10.28;86.23;101962.38;5034048;28;20029;-75
2022/05/28 04:00:14;;;;;;;12.32;3.42;;;;;;;10.26;86.49;101961.75;5033667;28;20029;-76
2022/05/28 04:02:39;;;;;;;11.38;3.40;;;;;;;10.28;85.95;101968.66;5030336;28;20045;-75
2022/05/28 04:05:05;;;;;;;16.77;3.80;;;;;;;10.29;86.83;101961.38;5033643;28;20079;-75
2022/05/28 04:07:30;;;;;;;14.68;3.72;;;;;;;10.27;86.18;101968.84;5033797;28;20025;-75
2022/05/28 04:09:55;;;;;;;14.65;3.47;;;;;;;10.29;86.73;101964.06;5033033;28;20095;-75
2022/05/28 04:12:21;;;;;;;14.60;3.90;;;;;;;10.28;86.43;101973.19;5033681;28;20053;-75
2022/05/28 04:14:46;;;;;;;11.52;3.60;;;;;;;10.22;87.09;101974.00;5033697;28;20064;-76
2022/05/28 04:17:12;;;;;;;20.42;3.83;;;;;;;10.22;87.37;101974.00;5033425;28;20029;-76
2022/05/28 04:19:37;;;;;;;15.10;3.55;;;;;;;10.24;87.74;101972.78;5033631;28;20356;-75
2022/05/28 04:22:03;;;;;;;15.55;4.05;;;;;;;10.21;87.40;101972.34;5033313;28;20048;-76
2022/05/28 04:24:29;;;;;;;15.27;3.80;;;;;;;10.22;88.63;101977.56;5033525;28;20060;-75
2022/05/28 04:26:54;;;;;;;20.10;3.92;;;;;;;10.28;87.40;101974.06;5033231;28;20034;-75
2022/05/28 04:29:19;;;;;;;15.13;3.13;;;;;;;10.29;87.94;101981.13;5033046;28;20090;-75
2022/05/28 04:31:45;;;;;;;15.25;3.55;;;;;;;10.30;88.34;101979.28;5033344;28;20042;-76
2022/05/28 04:34:10;;;;;;;15.98;3.60;;;;;;;10.35;88.57;101984.97;5033358;28;20082;-75
2022/05/28 04:36:35;;;;;;;16.00;3.53;;;;;;;10.37;89.10;101979.34;5015442;28;20075;-76
2022/05/28 04:39:00;;;;;;;14.30;3.47;;;;;;;10.42;89.00;101979.63;5015272;28;20215;-75
2022/05/28 04:41:26;;;;;;;12.88;3.70;;;;;;;10.48;89.44;101983.38;5033152;28;20025;-75
2022/05/28 04:43:51;;;;;;;16.15;3.30;;;;;;;10.46;89.37;101991.69;5033165;28;20474;-75
2022/05/28 04:46:17;;;;;;;15.60;3.45;;;;;;;10.49;89.08;101977.78;5032912;28;20102;-77
2022/05/28 04:48:42;;;;;;;17.08;4.20;;;;;;;10.54;89.56;101980.75;5015137;28;20030;-74
2022/05/28 04:51:07;;;;;;;13.70;3.30;;;;;;;10.56;89.75;101970.53;5032493;28;20061;-75
2022/05/28 04:53:35;;;;;;;16.77;3.90;;;;;;;10.57;89.70;101983.06;5033017;28;20025;-76
2022/05/28 04:56:00;;;;;;;11.63;3.50;;;;;;;10.57;89.59;101990.34;5032632;28;20056;-74
2022/05/28 04:58:27;;;;;;;20.35;3.50;;;;;;;10.63;89.55;101992.25;5031705;28;20068;-76
2022/05/28 05:00:53;;;;;;;19.50;3.85;;;;;;;10.64;90.38;101989.38;5029216;28;20481;-76
2022/05/28 05:03:19;;;;;;;14.90;3.40;;;;;;;10.72;90.62;101988.38;5032607;28;20082;-76
2022/05/28 05:05:44;;;;;;;21.15;4.25;;;;;;;10.78;90.35;102000.28;5033097;28;20078;-76
2022/05/28 05:08:09;;;;;;;16.42;4.28;;;;;;;10.80;90.50;102004.44;5032619;28;20463;-75
2022/05/28 05:10:35;;;;;;;20.02;3.97;;;;;;;10.80;90.26;102001.75;5030897;28;20037;-76
2022/05/28 05:13:01;;;;;;;10.18;3.17;;;;;;;10.84;90.83;102006.75;5032231;28;20033;-75
2022/05/28 05:15:26;;;;;;;24.30;4.07;;;;;;;10.81;91.05;102006.13;5032628;28;20037;-75
2022/05/28 05:17:51;;;;;;;13.10;3.58;;;;;;;10.84;90.44;102006.75;5014964;28;20038;-75
2022/05/28 05:20:17;;;;;;;16.88;3.55;;;;;;;10.95;91.02;102003.50;5032314;28;20064;-75
2022/05/28 05:22:42;;;;;;;19.25;3.67;;;;;;;10.99;90.28;102011.03;5032459;28;20031;-75
2022/05/28 05:25:09;;;;;;;13.38;3.60;;;;;;;11.00;90.91;101998.31;5032352;28;20382;-75
2022/05/28 05:27:34;;;;;;;14.95;3.50;;;;;;;11.08;90.50;102000.03;5032537;28;20108;-75
2022/05/28 05:29:59;;;;;;;19.50;3.35;;;;;;;11.13;89.74;102011.94;5032210;28;20437;-76
2022/05/28 05:32:26;;;;;;;20.23;4.13;;;;;;;11.20;90.67;102003.00;5032192;28;20033;-75
2022/05/28 05:34:51;;;;;;;14.63;3.20;;;;;;;11.28;90.03;102014.53;5032508;28;20030;-75
2022/05/28 05:37:17;;;;;;;13.45;3.10;;;;;;;11.38;89.41;102016.03;5014433;28;20034;-75
2022/05/28 05:39:42;;;;;;;11.10;2.38;;;;;;;11.44;88.32;102010.63;5032452;28;20474;-75
2022/05/28 05:42:08;;;;;;;14.90;3.15;;;;;;;11.51;88.20;102014.19;5035630;28;20048;-75
2022/05/28 05:44:34;;;;;;;10.43;2.10;;;;;;;11.59;87.35;102020.47;5018424;28;20033;-75
2022/05/28 05:46:59;;;;;;;11.43;2.17;;;;;;;11.66;86.72;102016.75;5035913;28;20031;-75
2022/05/28 05:49:24;;;;;;;17.45;3.08;;;;;;;11.75;86.39;102022.00;5036427;28;20072;-75
2022/05/28 05:51:51;;;;;;;10.15;2.10;;;;;;;11.77;83.65;102018.03;5036395;28;20378;-75
2022/05/28 05:54:17;;;;;;;13.32;2.30;;;;;;;11.83;83.48;102024.53;5035960;28;20154;-75
2022/05/28 05:56:43;;;;;;;14.40;2.30;;;;;;;11.91;82.45;102020.78;5018573;28;20515;-75
2022/05/28 05:59:08;;;;;;;13.32;2.30;;;;;;;11.98;82.77;102019.78;5018270;28;20474;-75
2022/05/28 06:01:33;;;;;;;8.70;2.08;;;;;;;12.04;80.66;102023.56;5032510;28;20478;-75
2022/05/28 06:03:59;;;;;;;14.85;2.22;;;;;;;12.10;80.77;102027.34;5035935;28;20056;-76
2022/05/28 06:06:25;;;;;;;10.52;2.25;;;;;;;12.12;79.27;102023.34;5035807;28;20410;-75
2022/05/28 06:08:50;;;;;;;9.93;1.75;;;;;;;12.17;79.83;102030.91;5035659;28;20033;-75
2022/05/28 06:11:16;;;;;;;9.10;1.98;;;;;;;12.25;78.74;102025.25;5035570;28;20445;-75
2022/05/28 06:13:41;;;;;;;6.75;1.88;;;;;;;12.33;77.58;102021.50;5035914;28;20529;-74
2022/05/28 06:16:07;;;;;;;9.63;1.90;;;;;;;12.39;75.98;102029.66;5035989;28;20041;-75
2022/05/28 06:18:33;;;;;;;10.07;1.55;;;;;;;12.47;73.85;102031.34;5036194;28;20151;-75
2022/05/28 06:21:00;;;;;;;10.00;1.90;;;;;;;12.46;74.08;102036.97;5018068;28;20064;-75
2022/05/28 06:23:26;;;;;;;9.00;1.95;;;;;;;12.40;72.97;102035.91;5035794;28;20143;-75
2022/05/28 06:25:51;;;;;;;13.73;1.85;;;;;;;12.33;73.08;102032.34;5035485;28;20084;-75
2022/05/28 06:28:16;;;;;;;5.53;1.30;;;;;;;12.30;71.65;102032.78;5035226;28;20041;-75
2022/05/28 06:30:44;;;;;;;11.10;1.73;;;;;;;12.23;72.71;102030.91;5035533;28;20022;-75
2022/05/28 06:33:10;;;;;;;9.65;1.77;;;;;;;12.26;72.72;102045.94;5035424;28;20025;-75
2022/05/28 06:35:35;;;;;;;9.48;2.22;;;;;;;12.28;71.08;102038.41;5017840;28;20470;-75
2022/05/28 06:38:01;;;;;;;12.38;1.77;;;;;;;12.34;70.00;102045.72;5034057;28;20064;-75
2022/05/28 06:40:27;;;;;;;7.25;1.70;;;;;;;12.41;69.49;102048.47;5035460;28;20052;-75
2022/05/28 06:42:55;;;;;;;8.00;1.77;;;;;;;12.48;69.50;102043.84;5035348;28;20056;-74
2022/05/28 06:45:20;;;;;;;13.73;2.15;;;;;;;12.53;68.39;102046.78;5035133;28;20036;-75
2022/05/28 06:47:46;;;;;;;8.82;2.10;;;;;;;12.54;65.90;102040.28;5035408;28;20040;-74
2022/05/28 06:52:58;;;;;;;7.63;1.75;;;;;;;12.70;68.53;102044.47;5034822;28;20485;-74
2022/05/28 06:55:23;;;;;;;7.50;1.67;;;;;;;12.79;68.01;102045.09;5033662;28;20033;-74
2022/05/28 06:57:49;;;;;;;9.50;2.15;;;;;;;12.86;66.79;102048.66;5033880;28;20036;-74
2022/05/28 07:00:15;;;;;;;11.35;1.70;;;;;;;12.82;66.07;102050.13;5034602;28;20035;-74
2022/05/28 07:02:40;;;;;;;8.13;1.40;;;;;;;12.80;65.71;102054.06;5031548;28;20180;-79
2022/05/28 07:05:06;;;;;;;10.18;2.13;;;;;;;12.76;65.52;102056.38;5016985;28;20477;-78
2022/05/28 07:07:31;;;;;;;10.73;1.83;;;;;;;12.69;66.40;102055.56;5017215;28;20036;-79
2022/05/28 07:09:56;;;;;;;7.28;1.58;;;;;;;12.62;65.69;102060.13;5034472;28;20033;-78
2022/05/28 07:12:22;;;;;;;9.43;2.13;;;;;;;12.55;65.89;102062.88;5034228;28;20425;-80
2022/05/28 07:14:47;;;;;;;14.27;2.50;;;;;;;12.63;64.49;102059.09;5016989;28;20025;-79
2022/05/28 07:17:13;;;;;;;12.38;1.73;;;;;;;12.73;63.61;102049.50;5016889;28;20467;-78
2022/05/28 07:19:38;;;;;;;9.63;1.48;;;;;;;12.86;63.68;102058.66;5034730;28;20030;-78
2022/05/28 07:22:03;;;;;;;11.15;1.80;;;;;;;13.00;61.74;102067.63;5034252;28;20013;-78
2022/05/28 07:24:29;;;;;;;6.80;1.52;;;;;;;13.03;61.50;102062.63;5034402;28;20382;-79
2022/05/28 07:26:54;;;;;;;7.47;1.65;;;;;;;13.10;61.68;102057.16;5034301;28;20087;-78
2022/05/28 07:29:19;;;;;;;9.10;1.77;;;;;;;13.26;62.90;102056.72;5034287;28;20025;-79
2022/05/28 07:31:45;;;;;;;9.73;1.67;;;;;;;13.30;62.07;102051.69;5034472;28;20033;-78
2022/05/28 07:34:11;;;;;;;9.25;1.60;;;;;;;13.40;60.73;102057.53;5034111;28;20041;-78
2022/05/28 07:36:36;;;;;;;6.03;1.60;;;;;;;13.41;59.27;102058.38;5033066;28;20044;-78
2022/05/28 07:39:02;;;;;;;7.20;1.50;;;;;;;13.39;60.02;102061.31;5016708;28;20390;-78
2022/05/28 07:41:28;;;;;;;11.27;1.50;;;;;;;13.35;59.78;102056.53;5016047;28;20033;-78
2022/05/28 07:43:55;;;;;;;6.85;1.48;;;;;;;13.30;59.97;102057.97;5032969;28;20386;-78
2022/05/28 07:46:26;;;;;;;6.78;1.38;;;;;;;13.26;57.99;102061.31;5016185;28;20034;-78
2022/05/28 07:48:53;;;;;;;6.17;1.33;;;;;;;13.37;58.01;102068.00;5033849;28;20025;-78
2022/05/28 07:51:18;;;;;;;7.70;1.60;;;;;;;13.48;59.50;102061.88;5032556;28;20287;-78
2022/05/28 07:53:43;;;;;;;6.45;1.38;;;;;;;13.59;56.16;102053.06;5016234;28;20021;-79
2022/05/28 07:56:10;;;;;;;5.68;1.60;;;;;;;13.67;55.71;102079.19;5034091;28;20364;-78
2022/05/28 07:58:35;;;;;;;6.43;1.67;;;;;;;13.72;56.07;102059.50;5033895;28;20044;-78
2022/05/28 08:01:01;;;;;;;7.65;1.80;;;;;;;13.78;56.52;102064.06;5030291;28;20041;-79
2022/05/28 08:03:27;;;;;;;8.48;1.52;;;;;;;13.89;56.45;102055.25;5032487;28;20386;-79
2022/05/28 08:05:54;;;;;;;6.70;1.75;;;;;;;14.04;55.38;102067.72;5015942;28;20026;-78
2022/05/28 08:08:21;;;;;;;8.93;2.08;;;;;;;13.95;53.58;102056.22;5033475;28;20513;-78
2022/05/28 08:10:48;;;;;;;7.57;1.50;;;;;;;14.03;55.43;102055.19;5033323;28;20029;-80
2022/05/28 08:13:18;;;;;;;8.60;1.80;;;;;;;14.06;57.03;102058.28;5033475;28;20363;-80
2022/05/28 08:15:44;;;;;;;10.85;1.60;;;;;;;13.86;56.18;102061.13;5033665;28;20029;-79
2022/05/28 08:18:12;;;;;;;7.53;1.80;;;;;;;13.65;56.76;102060.38;5033284;28;20427;-77
2022/05/28 08:23:21;;;;;;;6.80;1.70;;;;;;;13.35;58.55;102062.78;5033005;28;20067;-79
2022/05/28 08:25:48;;;;;;;5.63;1.35;;;;;;;13.36;57.68;102053.59;5033412;28;20430;-79
2022/05/28 08:28:14;;;;;;;8.32;1.70;;;;;;;13.38;57.81;102054.19;5033538;28;20215;-79
2022/05/28 08:30:40;;;;;;;12.05;1.90;;;;;;;13.57;58.07;102057.06;5033369;28;20112;-79
2022/05/28 08:33:07;;;;;;;8.52;1.77;;;;;;;13.62;56.65;102052.66;5033413;28;20465;-79
2022/05/28 08:35:33;;;;;;;5.75;1.65;;;;;;;13.74;56.17;102054.66;5033286;28;20025;-79
2022/05/28 08:38:05;;;;;;;10.73;1.80;;;;;;;13.81;55.83;102063.63;5033276;28;20033;-79
2022/05/28 08:40:36;;;;;;;8.60;1.70;;;;;;;13.95;54.17;102059.81;5032915;28;20121;-78
2022/05/28 08:43:02;;;;;;;5.55;1.50;;;;;;;14.00;55.52;102049.09;5032835;28;20072;-78
2022/05/28 08:45:27;;;;;;;8.98;1.75;;;;;;;14.06;55.17;102043.84;5032886;28;20471;-78
2022/05/28 08:47:55;;;;;;;11.57;1.83;;;;;;;14.18;55.36;102047.53;5033041;28;20029;-79
2022/05/28 08:50:21;;;;;;;7.97;1.80;;;;;;;14.23;54.16;102050.41;5032880;28;20466;-78
2022/05/28 08:52:53;;;;;;;7.13;1.42;;;;;;;14.32;53.11;102048.25;5032937;28;20036;-78
2022/05/28 08:55:26;;;;;;;9.75;2.17;;;;;;;14.31;52.62;102041.13;5032985;28;20392;-80
2022/05/28 08:58:00;;;;;;;10.20;1.88;;;;;;;14.41;53.88;102046.94;5015140;28;20063;-76
2022/05/28 09:00:57;;;;;;;9.05;1.88;;;;;;;14.58;54.79;102047.22;5031596;28;20032;-74
2022/05/28 09:03:41;;;;;;;7.03;1.55;;;;;;;14.69;53.73;102041.09;5014144;28;20041;-72
2022/05/28 09:06:17;;;;;;;8.13;1.85;;;;;;;14.77;53.66;102052.75;5032823;28;20021;-72
2022/05/28 09:08:46;;;;;;;5.75;1.27;;;;;;;14.73;53.61;102048.81;5046464;28;20036;-72
2022/05/28 09:11:18;;;;;;;8.73;1.70;;;;;;;14.70;53.14;102058.25;5038747;28;20045;-73
2022/05/28 09:13:45;;;;;;;6.80;1.20;;;;;;;14.56;54.33;102056.69;5026629;28;20108;-73
2022/05/28 09:16:22;;;;;;;5.70;1.60;;;;;;;14.35;54.06;102047.81;5013627;28;20038;-73
2022/05/28 09:18:50;;;;;;;6.28;1.42;;;;;;;14.20;53.82;102055.47;5013071;28;20026;-73
2022/05/28 09:21:16;;;;;;;11.32;1.65;;;;;;;14.26;55.91;102060.03;5012644;28;20125;-71
2022/05/28 09:23:49;;;;;;;6.63;1.85;;;;;;;14.27;55.52;102051.66;5012878;28;20033;-74
2022/05/28 09:26:29;;;;;;;9.68;2.08;;;;;;;14.43;57.08;102046.72;4994911;28;20037;-72
2022/05/28 09:29:35;;;;;;;6.35;1.27;;;;;;;14.63;56.10;102038.41;5012742;28;20084;-72
2022/05/28 09:32:37;;;;;;;9.98;1.58;;;;;;;14.76;53.87;102042.91;5026501;28;20044;-71
2022/05/28 09:35:13;;;;;;;8.07;1.63;;;;;;;14.96;51.75;102043.56;4989296;28;20117;-74
2022/05/28 09:37:44;;;;;;;11.70;1.73;;;;;;;15.02;50.32;102045.38;5012584;28;20038;-73
2022/05/28 09:40:28;;;;;;;12.02;2.13;;;;;;;15.10;51.12;102046.13;5012221;28;20457;-73
2022/05/28 09:43:01;;;;;;;6.68;1.40;;;;;;;14.94;50.81;102042.94;5012636;28;20084;-73
2022/05/28 09:45:35;;;;;;;7.80;1.67;;;;;;;14.92;50.76;102047.78;5012429;28;20030;-73
2022/05/28 09:48:01;;;;;;;8.82;1.35;;;;;;;14.71;49.67;102041.69;5019168;28;20026;-73
2022/05/28 09:50:29;;;;;;;8.95;1.50;;;;;;;14.64;49.91;102045.53;5030498;28;20493;-73
2022/05/28 09:55:59;;;;;;;10.18;1.60;;;;;;;14.67;51.72;102045.06;5032293;28;20445;-72
2022/05/28 09:58:28;;;;;;;8.57;1.60;;;;;;;14.69;52.07;102043.81;5051361;28;20036;-72
2022/05/28 10:01:07;;;;;;;15.38;1.92;;;;;;;14.77;53.20;102045.41;5046171;28;20116;-72
2022/05/28 10:06:19;;;;;;;10.05;1.70;;;;;;;14.76;53.63;102032.00;5031945;28;20052;-72
2022/05/28 10:08:44;;;;;;;5.75;1.63;;;;;;;14.94;53.85;102037.47;5035604;28;20029;-73
2022/05/28 10:11:15;;;;;;;10.85;1.85;;;;;;;15.01;50.86;102035.53;5031353;28;20111;-72
2022/05/28 10:13:49;;;;;;;10.50;1.70;;;;;;;15.01;51.49;102030.06;5032139;28;20044;-73
2022/05/28 10:16:22;;;;;;;7.68;1.77;;;;;;;15.03;52.36;102027.13;5031595;28;20117;-70
2022/05/28 10:18:54;;;;;;;8.45;1.90;;;;;;;14.82;52.30;102034.66;5014477;28;20132;-73
2022/05/28 10:21:26;;;;;;;9.07;2.30;;;;;;;14.66;52.36;102033.34;5031747;28;20533;-72
2022/05/28 10:23:55;;;;;;;10.00;1.83;;;;;;;14.70;51.58;102033.72;5029979;28;20489;-71
2022/05/28 10:26:35;;;;;;;7.55;1.83;;;;;;;14.77;49.46;102033.69;5032354;28;20060;-73
2022/05/28 10:29:27;;;;;;;6.13;1.60;;;;;;;14.92;50.64;102031.44;5035773;28;20474;-74
2022/05/28 10:31:54;;;;;;;4.72;1.42;;;;;;;15.11;50.64;102029.53;5028358;28;20026;-73
2022/05/28 10:34:38;;;;;;;8.80;1.98;;;;;;;15.25;48.41;102019.34;5015719;28;20112;-73
2022/05/28 10:37:16;;;;;;;8.70;2.10;;;;;;;15.26;47.83;102025.63;5015749;28;20029;-73
2022/05/28 10:39:42;;;;;;;9.07;1.48;;;;;;;15.10;46.87;102027.03;5015832;28;20033;-72
2022/05/28 10:42:11;;;;;;;5.50;1.42;;;;;;;14.97;47.10;102023.41;5015635;28;20041;-74
2022/05/28 10:44:38;;;;;;;11.38;1.92;;;;;;;15.07;47.88;102033.81;5015443;28;20049;-73
2022/05/28 10:47:27;;;;;;;8.45;1.77;;;;;;;15.24;48.31;102017.66;5025489;28;20029;-74
2022/05/28 10:50:14;;;;;;;7.43;1.52;;;;;;;15.44;43.97;102031.06;5035221;28;20087;-73
2022/05/28 10:53:17;;;;;;;6.18;1.40;;;;;;;15.46;45.48;102025.38;5034417;28;20049;-74
2022/05/28 10:56:21;;;;;;;6.63;1.88;;;;;;;15.45;44.45;102019.09;5035669;28;20034;-74
2022/05/28 10:59:15;;;;;;;6.70;1.58;;;;;;;15.61;45.82;102009.44;5035310;28;20025;-74
2022/05/28 11:01:50;;;;;;;5.90;1.50;;;;;;;15.90;46.80;102021.47;5028136;28;20125;-75
2022/05/28 11:04:45;;;;;;;7.28;1.60;;;;;;;15.92;45.12;102013.84;5018933;28;20042;-74
2022/05/28 11:07:31;;;;;;;5.63;1.40;;;;;;;15.92;43.77;102015.75;5015068;28;20091;-75
2022/05/28 11:10:19;;;;;;;8.82;1.90;;;;;;;15.97;44.50;102015.88;5013803;28;20382;-74
2022/05/28 11:12:44;;;;;;;7.85;1.80;;;;;;;16.19;45.22;102008.00;5000760;28;20212;-74
2022/05/28 11:15:27;;;;;;;4.15;1.38;;;;;;;16.12;45.84;102007.25;5015200;28;20535;-74
2022/05/28 11:18:43;;;;;;;4.82;1.30;;;;;;;15.90;45.86;102026.91;5033448;28;20034;-74
2022/05/28 11:21:31;;;;;;;8.02;1.95;;;;;;;15.65;45.49;102024.28;5000281;28;20450;-73
2022/05/28 11:24:13;;;;;;;5.20;1.15;;;;;;;15.59;42.48;102003.38;5034373;28;20041;-74
2022/05/28 11:26:50;;;;;;;6.88;1.33;;;;;;;15.63;42.52;102004.59;5033413;28;20390;-74
2022/05/28 11:29:34;;;;;;;5.88;1.13;;;;;;;15.92;41.97;102002.94;5032959;28;20029;-74
2022/05/28 11:32:12;;;;;;;6.47;1.38;;;;;;;16.00;43.27;101999.03;5034576;28;20060;-73
2022/05/28 11:34:40;;;;;;;7.90;1.60;;;;;;;16.22;43.94;101998.50;5017730;28;20034;-74
2022/05/28 11:37:21;;;;;;;4.03;1.15;;;;;;;16.35;41.12;101995.56;5013118;28;20033;-74
2022/05/28 11:40:07;;;;;;;9.82;1.63;;;;;;;16.47;41.10;102001.88;5013983;28;20033;-74